Time;durP1;ratioP1;P1;durP2;ratioP2;P2;SDS_P1;SDS_P2;PMS_P1;PMS_P2;Temp;Humidity;BMP_temperature;BMP_pressure;BME280_temperature;BME280_humidity;BME280_pressure;Samples;Min_cycle;Max_cycle;Signal;HPM_P1;HPM_P2
2021/03/02 00:01:09;;;;;;;21.15;11.38;;;6.70;66.10;;;5.02;61.51;97287.88;4968950;28;20040;-69
2021/03/02 00:03:39;;;;;;;19.25;11.38;;;6.60;66.10;;;4.99;62.05;97294.19;4928790;29;20024;-70
2021/03/02 00:06:06;;;;;;;20.92;12.02;;;6.60;66.20;;;4.97;62.17;97292.63;4957256;28;20038;-69
2021/03/02 00:08:32;;;;;;;18.90;11.23;;;6.60;66.20;;;4.93;62.06;97302.47;4933870;29;20039;-69
2021/03/02 00:11:01;;;;;;;20.13;12.02;;;6.60;66.40;;;4.89;63.35;97291.47;4930779;29;20498;-70
2021/03/02 00:13:28;;;;;;;20.42;11.95;;;6.60;66.50;;;4.83;62.73;97294.59;4931989;28;20039;-69
2021/03/02 00:15:54;;;;;;;21.08;12.73;;;6.50;66.70;;;4.81;62.41;97296.50;4931339;28;20152;-69
2021/03/02 00:18:20;;;;;;;18.67;11.80;;;6.50;66.90;;;4.76;62.75;97290.84;4946704;29;20032;-69
2021/03/02 00:20:53;;;;;;;19.75;12.50;;;6.50;66.90;;;4.73;65.28;97291.06;4930264;28;21923;-70
2021/03/02 00:23:26;;;;;;;21.25;12.35;;;6.40;67.10;;;4.69;65.19;97300.06;4935473;28;20028;-69
2021/03/02 00:25:57;;;;;;;19.67;12.88;;;6.40;67.50;;;4.67;65.44;97296.75;4931664;28;20129;-69
2021/03/02 00:28:25;;;;;;;19.55;12.43;;;6.40;67.50;;;4.65;64.23;97293.47;4927822;29;20036;-70
2021/03/02 00:30:51;;;;;;;21.73;12.57;;;6.30;67.80;;;4.64;63.15;97302.22;4929002;29;20032;-69
2021/03/02 00:33:17;;;;;;;19.90;12.75;;;6.30;67.80;;;4.62;63.11;97306.75;4936752;28;20071;-69
2021/03/02 00:35:43;;;;;;;28.85;13.75;;;6.30;67.90;;;4.60;63.39;97306.03;4915984;28;20039;-69
2021/03/02 00:38:08;;;;;;;26.35;13.35;;;6.30;68.00;;;4.58;63.24;97313.16;4929992;29;20055;-70
2021/03/02 00:40:34;;;;;;;22.65;12.85;;;6.30;67.90;;;4.53;63.57;97310.91;4937292;28;20521;-69
2021/03/02 00:43:00;;;;;;;22.40;12.55;;;6.20;67.70;;;4.51;63.53;97309.34;4940024;28;20545;-69
2021/03/02 00:45:26;;;;;;;23.42;12.23;;;6.20;68.00;;;4.48;63.59;97317.41;4948872;28;20628;-70
2021/03/02 00:47:52;;;;;;;20.15;11.68;;;6.10;68.10;;;4.42;63.72;97307.47;4925705;28;20063;-70
2021/03/02 00:50:18;;;;;;;20.60;12.68;;;6.10;68.40;;;4.40;63.46;97309.38;4924401;29;20076;-70
2021/03/02 00:52:44;;;;;;;19.65;12.40;;;6.10;68.20;;;4.35;63.92;97312.34;4947829;29;20051;-70
2021/03/02 00:55:10;;;;;;;21.83;12.82;;;6.00;68.40;;;4.29;63.83;97305.00;4947858;29;20569;-70
2021/03/02 00:57:36;;;;;;;20.58;12.45;;;6.00;68.20;;;4.23;64.18;97308.91;4947548;28;20028;-70
2021/03/02 01:00:03;;;;;;;22.52;12.85;;;5.90;68.00;;;4.19;64.14;97311.91;4969319;28;20070;-70
2021/03/02 01:02:29;;;;;;;20.63;12.75;;;5.90;68.00;;;4.15;64.25;97306.09;4920556;29;20039;-70
2021/03/02 01:04:55;;;;;;;20.38;12.05;;;5.90;68.20;;;4.10;64.44;97303.03;4945652;29;20031;-70
2021/03/02 01:07:21;;;;;;;21.02;12.38;;;5.80;68.40;;;4.05;64.57;97301.72;4906829;29;20456;-70
2021/03/02 01:09:46;;;;;;;25.55;13.65;;;5.80;68.50;;;3.97;64.30;97299.72;4928111;29;20574;-70
2021/03/02 01:12:12;;;;;;;21.98;13.57;;;5.70;68.80;;;3.91;64.43;97293.22;4942140;28;20071;-69
2021/03/02 01:14:38;;;;;;;22.95;13.80;;;5.70;69.00;;;3.89;64.28;97296.88;4946651;29;20126;-69
2021/03/02 01:17:04;;;;;;;21.30;13.27;;;5.60;69.10;;;3.87;64.85;97291.78;4946648;28;20415;-70
2021/03/02 01:19:30;;;;;;;21.40;12.98;;;5.60;69.40;;;3.82;65.07;97286.09;4946044;29;20079;-70
2021/03/02 01:21:55;;;;;;;25.95;14.18;;;5.60;69.60;;;3.79;64.75;97290.72;4956348;28;20504;-70
2021/03/02 01:24:21;;;;;;;23.05;14.07;;;5.60;69.70;;;3.73;64.96;97289.41;4936724;28;20661;-69
2021/03/02 01:26:47;;;;;;;22.20;13.43;;;5.50;69.80;;;3.72;64.58;97289.53;4931243;29;20099;-69
2021/03/02 01:29:13;;;;;;;24.48;13.77;;;5.50;69.90;;;3.67;65.33;97275.09;4950713;28;20035;-70
2021/03/02 01:31:38;;;;;;;23.02;14.00;;;5.40;70.00;;;3.63;65.16;97278.88;4946918;29;20423;-70
2021/03/02 01:34:04;;;;;;;26.42;14.70;;;5.40;70.30;;;3.60;65.18;97283.47;4931151;29;20495;-69
2021/03/02 01:36:30;;;;;;;23.60;14.05;;;5.40;70.10;;;3.59;65.42;97280.03;4915315;29;20052;-69
2021/03/02 01:38:56;;;;;;;25.58;15.00;;;5.30;70.30;;;3.54;65.59;97279.56;4955360;28;20051;-70
2021/03/02 01:41:22;;;;;;;22.77;13.95;;;5.30;70.40;;;3.51;65.72;97277.22;4946428;28;20043;-70
2021/03/02 01:43:47;;;;;;;24.65;14.35;;;5.30;70.60;;;3.49;65.97;97276.50;4939229;28;20027;-69
2021/03/02 01:46:13;;;;;;;29.25;14.35;;;5.30;70.80;;;3.47;66.44;97278.38;4931294;29;20130;-69
2021/03/02 01:48:39;;;;;;;26.08;14.32;;;5.20;70.90;;;3.44;66.44;97278.63;4942777;28;20039;-69
2021/03/02 01:51:06;;;;;;;22.50;14.23;;;5.20;71.10;;;3.42;66.72;97274.47;4918224;29;20031;-69
2021/03/02 01:53:32;;;;;;;24.45;14.48;;;5.10;71.10;;;3.39;66.80;97272.91;4929133;29;20063;-69
2021/03/02 01:55:59;;;;;;;25.15;13.32;;;5.10;71.30;;;3.34;66.58;97277.63;4939301;28;21508;-68
2021/03/02 01:58:28;;;;;;;26.92;14.35;;;5.10;71.50;;;3.34;68.16;97267.25;4947252;29;20050;-69
2021/03/02 02:00:58;;;;;;;22.98;14.68;;;5.10;71.50;;;3.32;68.41;97275.16;4917714;28;20476;-70
2021/03/02 02:03:45;;;;;;;23.38;14.48;;;5.10;71.70;;;3.33;68.56;97270.78;4936442;29;20090;-68
2021/03/02 02:06:26;;;;;;;23.95;14.05;;;5.10;71.80;;;3.32;70.26;97267.34;4923591;28;20039;-68
2021/03/02 02:09:35;;;;;;;25.65;14.93;;;5.10;71.90;;;3.31;70.68;97272.66;4958761;28;20445;-68
2021/03/02 02:12:09;;;;;;;26.13;14.05;;;5.10;71.80;;;3.29;68.58;97274.56;4899663;29;20573;-68
2021/03/02 02:14:43;;;;;;;26.13;14.63;;;5.10;71.90;;;3.28;68.76;97272.91;4940682;29;20155;-68
2021/03/02 02:17:26;;;;;;;22.73;14.10;;;5.00;71.90;;;3.27;70.52;97273.84;4965272;28;20215;-68
2021/03/02 02:19:56;;;;;;;24.15;14.00;;;5.00;72.00;;;3.26;66.96;97269.59;4964039;28;20044;-68
2021/03/02 02:22:53;;;;;;;24.25;14.15;;;5.00;72.00;;;3.24;70.32;97277.50;4956530;28;20040;-68
2021/03/02 02:25:37;;;;;;;30.20;15.05;;;5.00;71.80;;;3.23;70.06;97275.84;4947977;29;20506;-68
2021/03/02 02:28:03;;;;;;;25.55;15.18;;;5.00;72.00;;;3.20;67.06;97272.66;4939201;28;20190;-68
2021/03/02 02:30:30;;;;;;;26.15;14.20;;;4.90;72.00;;;3.19;67.65;97271.84;4914958;29;20035;-68
2021/03/02 02:32:55;;;;;;;27.38;14.27;;;5.00;72.00;;;3.19;67.04;97284.00;4939297;29;20039;-68
2021/03/02 02:35:22;;;;;;;24.75;14.82;;;4.90;72.00;;;3.21;67.37;97287.31;4917272;28;20063;-68
2021/03/02 02:37:50;;;;;;;26.75;14.63;;;5.00;72.00;;;3.20;68.42;97290.88;4933156;28;20086;-68
2021/03/02 02:40:17;;;;;;;24.92;14.65;;;5.00;72.00;;;3.19;67.04;97284.00;4953847;28;20031;-68
2021/03/02 02:42:49;;;;;;;25.08;14.68;;;5.00;71.90;;;3.21;69.33;97289.91;4944628;28;20491;-68
2021/03/02 02:45:16;;;;;;;26.23;15.23;;;5.00;71.80;;;3.18;68.00;97292.75;4891899;29;20057;-68
2021/03/02 02:47:42;;;;;;;26.02;14.27;;;5.00;71.70;;;3.15;67.22;97290.34;4932784;28;20062;-68
2021/03/02 02:50:08;;;;;;;24.48;14.32;;;4.90;71.80;;;3.14;67.74;97288.69;4956735;28;20508;-68
2021/03/02 02:52:34;;;;;;;24.33;13.98;;;4.90;71.70;;;3.12;67.71;97293.19;4960668;28;20039;-68
2021/03/02 02:55:00;;;;;;;24.65;14.52;;;4.90;71.70;;;3.10;67.26;97295.06;4919532;29;20551;-69
2021/03/02 02:57:26;;;;;;;22.70;14.30;;;4.90;71.60;;;3.06;67.81;97300.50;4937525;29;20078;-69
2021/03/02 02:59:51;;;;;;;23.77;14.40;;;4.80;71.70;;;3.04;67.33;97307.59;4947444;28;20030;-69
2021/03/02 03:02:22;;;;;;;26.70;14.88;;;4.80;71.60;;;2.98;69.29;97297.66;4941530;28;20032;-69
2021/03/02 03:05:09;;;;;;;27.45;14.15;;;4.80;71.70;;;2.95;70.50;97303.06;4914599;29;20053;-68
2021/03/02 03:07:41;;;;;;;32.47;19.83;;;4.70;72.00;;;2.91;68.69;97300.78;4947697;28;20039;-69
2021/03/02 03:10:08;;;;;;;32.88;17.15;;;4.60;72.30;;;2.88;67.95;97299.25;4948422;28;20510;-69
2021/03/02 03:12:39;;;;;;;30.45;18.20;;;4.60;72.30;;;2.86;69.95;97308.91;4934796;29;20055;-69
2021/03/02 03:15:07;;;;;;;27.05;15.45;;;4.70;72.40;;;2.85;68.52;97302.06;4929858;29;20039;-68
2021/03/02 03:17:45;;;;;;;25.92;14.55;;;4.60;72.60;;;2.82;68.88;97302.28;4958997;28;20039;-69
2021/03/02 03:20:12;;;;;;;27.27;14.88;;;4.60;72.60;;;2.82;67.84;97296.28;4951280;28;20049;-69
2021/03/02 03:22:39;;;;;;;26.90;14.57;;;4.60;72.50;;;2.80;68.50;97298.97;4935229;29;20078;-68
2021/03/02 03:25:06;;;;;;;60.67;30.55;;;4.60;72.40;;;2.78;68.76;97295.66;4939492;29;20042;-68
2021/03/02 03:27:33;;;;;;;50.13;27.27;;;4.60;72.50;;;2.78;68.69;97305.22;4945258;28;20094;-68
2021/03/02 03:29:59;;;;;;;28.13;16.65;;;4.60;72.60;;;2.76;68.45;97297.56;4965159;28;20076;-68
2021/03/02 03:32:25;;;;;;;23.75;14.32;;;4.60;72.60;;;2.73;68.02;97297.78;4948973;29;20035;-69
2021/03/02 03:34:50;;;;;;;24.38;13.40;;;4.60;72.70;;;2.71;68.75;97304.81;4948585;29;20046;-69
2021/03/02 03:37:16;;;;;;;25.48;15.13;;;4.50;72.80;;;2.72;68.79;97296.13;4940815;29;20063;-68
2021/03/02 03:39:42;;;;;;;24.63;14.68;;;4.60;72.80;;;2.69;68.50;97291.13;4945923;28;20074;-68
2021/03/02 03:42:07;;;;;;;24.20;13.88;;;4.50;72.80;;;2.68;68.75;97294.66;4967821;28;20035;-68
2021/03/02 03:44:33;;;;;;;24.70;14.38;;;4.50;72.90;;;2.67;68.55;97293.81;4920520;29;20560;-68
2021/03/02 03:47:01;;;;;;;27.42;15.57;;;4.50;73.10;;;2.66;68.28;97294.78;4931383;29;20055;-68
2021/03/02 03:49:27;;;;;;;27.45;15.48;;;4.50;73.20;;;2.65;68.34;97289.69;4941998;29;20126;-68
2021/03/02 03:51:53;;;;;;;35.65;19.15;;;4.40;73.30;;;2.63;68.94;97291.56;4900179;28;20450;-68
2021/03/02 03:54:18;;;;;;;30.10;17.08;;;4.40;73.40;;;2.62;69.33;97290.75;4948848;29;20055;-68
2021/03/02 03:56:44;;;;;;;27.52;14.80;;;4.40;73.50;;;2.59;69.44;97297.94;4948133;28;20031;-68
2021/03/02 03:59:11;;;;;;;27.48;14.68;;;4.30;73.60;;;2.57;69.88;97292.00;4925320;29;20043;-69
2021/03/02 04:01:37;;;;;;;27.27;15.02;;;4.30;73.70;;;2.54;69.23;97294.84;4931840;29;20027;-69
2021/03/02 04:04:02;;;;;;;25.10;14.07;;;4.30;73.90;;;2.53;69.91;97290.59;4916328;29;20038;-68
2021/03/02 04:06:28;;;;;;;26.08;14.93;;;4.30;73.80;;;2.50;69.77;97285.63;4944550;28;20051;-68
2021/03/02 04:08:54;;;;;;;28.23;14.13;;;4.30;74.00;;;2.49;69.97;97292.56;4929544;29;20091;-69
2021/03/02 04:11:20;;;;;;;27.08;14.15;;;4.20;73.90;;;2.49;69.63;97294.31;4915994;29;20035;-69
2021/03/02 04:13:45;;;;;;;30.75;16.48;;;4.30;74.00;;;2.47;69.03;97299.63;4912707;29;20487;-69
2021/03/02 04:16:11;;;;;;;27.10;15.48;;;4.20;74.20;;;2.46;69.93;97301.38;4916068;29;20430;-69
2021/03/02 04:18:38;;;;;;;28.10;14.52;;;4.30;74.20;;;2.44;69.57;97298.06;4948527;29;20035;-69
2021/03/02 04:21:04;;;;;;;26.52;14.80;;;4.20;74.20;;;2.42;69.86;97299.13;4944303;28;20054;-68
2021/03/02 04:23:30;;;;;;;29.70;17.52;;;4.20;74.00;;;2.42;69.20;97314.72;4957192;28;20031;-69
2021/03/02 04:25:55;;;;;;;29.55;16.63;;;4.30;74.40;;;2.43;69.82;97305.97;4932778;28;20499;-69
2021/03/02 04:28:21;;;;;;;26.38;15.30;;;4.30;74.10;;;2.41;70.42;97319.06;4930713;29;20032;-69
2021/03/02 04:30:47;;;;;;;27.85;15.25;;;4.30;73.90;;;2.40;69.68;97317.41;4926899;29;20027;-69
2021/03/02 04:33:13;;;;;;;24.23;14.55;;;4.20;73.80;;;2.38;70.03;97318.47;4927168;29;20368;-69
2021/03/02 04:35:38;;;;;;;27.40;13.98;;;4.20;73.70;;;2.36;70.28;97315.97;4939496;29;20505;-69
2021/03/02 04:38:04;;;;;;;27.92;14.57;;;4.10;73.40;;;2.31;69.61;97318.06;4963781;28;20118;-67
2021/03/02 04:40:30;;;;;;;27.55;14.77;;;4.10;73.10;;;2.29;69.82;97317.34;4968944;28;20057;-71
2021/03/02 04:42:56;;;;;;;27.90;14.40;;;4.10;73.40;;;2.25;69.92;97315.06;4918743;29;20062;-69
2021/03/02 04:45:21;;;;;;;25.67;14.52;;;4.10;73.30;;;2.23;69.97;97322.97;4934587;29;20062;-69
2021/03/02 04:47:47;;;;;;;23.60;14.73;;;4.10;73.40;;;2.21;70.12;97324.00;4937214;28;20031;-68
2021/03/02 04:50:14;;;;;;;24.90;14.10;;;4.10;73.60;;;2.19;70.34;97321.50;4950111;28;20036;-67
2021/03/02 04:52:40;;;;;;;23.90;13.57;;;4.10;73.30;;;2.16;69.87;97324.31;4967844;28;20047;-67
2021/03/02 04:55:07;;;;;;;25.08;14.52;;;4.00;73.30;;;2.12;70.06;97317.69;4947810;28;20074;-68
2021/03/02 04:57:32;;;;;;;29.20;14.52;;;4.00;73.20;;;2.10;69.68;97319.56;4947967;28;20038;-68
2021/03/02 04:59:58;;;;;;;23.17;14.20;;;4.00;73.30;;;2.05;69.67;97319.06;4932367;28;20043;-68
2021/03/02 05:02:24;;;;;;;24.00;13.23;;;3.90;73.60;;;2.00;70.22;97314.16;4962461;28;20043;-68
2021/03/02 05:04:50;;;;;;;23.63;13.75;;;3.90;73.90;;;1.99;69.70;97322.06;4938023;28;20043;-68
2021/03/02 05:07:15;;;;;;;24.48;13.98;;;3.90;74.00;;;1.96;70.21;97322.28;4918684;29;20412;-69
2021/03/02 05:09:41;;;;;;;28.63;14.73;;;3.80;74.20;;;1.93;70.49;97317.31;4963600;28;20069;-69
2021/03/02 05:12:07;;;;;;;30.42;15.27;;;3.80;74.40;;;1.90;70.85;97320.94;4974727;28;20062;-68
2021/03/02 05:14:33;;;;;;;29.33;14.88;;;3.70;74.50;;;1.87;70.30;97322.94;4949303;28;20046;-68
2021/03/02 05:16:59;;;;;;;27.08;14.90;;;3.80;74.60;;;1.87;70.83;97325.53;4938036;28;20119;-69
2021/03/02 05:19:24;;;;;;;25.33;14.95;;;3.80;74.70;;;1.84;71.16;97324.78;4930958;28;20059;-68
2021/03/02 05:21:50;;;;;;;26.42;14.48;;;3.80;74.50;;;1.82;70.53;97329.25;4945182;28;20129;-68
2021/03/02 05:24:16;;;;;;;24.63;14.48;;;3.70;74.60;;;1.83;70.99;97328.31;4946037;29;20043;-68
2021/03/02 05:26:41;;;;;;;24.75;14.70;;;3.70;74.60;;;1.82;70.97;97326.66;4950171;28;20102;-69
2021/03/02 05:29:07;;;;;;;24.67;14.38;;;3.70;74.70;;;1.82;70.36;97326.66;4916742;29;20520;-69
2021/03/02 05:31:33;;;;;;;28.30;15.35;;;3.70;74.60;;;1.82;70.40;97328.44;4937931;28;20515;-70
2021/03/02 05:33:59;;;;;;;26.30;13.82;;;3.70;74.30;;;1.78;70.55;97327.78;4923605;29;20759;-69
2021/03/02 05:36:24;;;;;;;26.75;14.82;;;3.70;74.00;;;1.75;70.99;97324.56;4943299;29;20436;-69
2021/03/02 05:38:50;;;;;;;27.98;16.45;;;3.60;74.40;;;1.73;71.14;97318.66;4934051;29;20059;-68
2021/03/02 05:41:16;;;;;;;26.80;15.18;;;3.60;74.80;;;1.72;70.79;97323.03;4952036;28;20031;-72
2021/03/02 05:43:42;;;;;;;26.98;15.10;;;3.60;74.80;;;1.72;71.11;97330.81;4965224;28;20441;-72
2021/03/02 05:46:11;;;;;;;27.90;15.48;;;3.60;74.60;;;1.72;72.02;97335.16;4936996;28;20040;-72
2021/03/02 05:48:41;;;;;;;29.60;15.65;;;3.60;74.40;;;1.69;71.57;97330.19;4931410;28;20031;-73
2021/03/02 05:51:10;;;;;;;29.42;14.85;;;3.60;74.20;;;1.66;70.73;97325.22;4902936;29;20494;-69
2021/03/02 05:53:39;;;;;;;26.95;15.02;;;3.60;74.30;;;1.65;71.77;97332.16;4934203;28;20642;-70
2021/03/02 05:56:08;;;;;;;28.50;15.10;;;3.60;74.20;;;1.63;71.82;97336.63;4915153;29;20035;-69
2021/03/02 05:58:34;;;;;;;24.23;14.43;;;3.60;74.30;;;1.62;70.89;97342.75;4959544;28;20031;-69
2021/03/02 06:01:00;;;;;;;27.77;15.75;;;3.50;74.10;;;1.60;70.54;97343.78;4931326;29;20403;-69
2021/03/02 06:03:26;;;;;;;26.45;15.73;;;3.50;74.00;;;1.58;70.60;97343.88;4937538;28;20054;-72
2021/03/02 06:05:52;;;;;;;27.50;15.75;;;3.40;74.30;;;1.55;71.36;97346.66;4938587;29;20040;-67
2021/03/02 06:08:17;;;;;;;26.45;15.65;;;3.40;74.60;;;1.52;70.99;97349.47;4917994;28;20126;-69
2021/03/02 06:10:43;;;;;;;26.08;14.75;;;3.40;74.10;;;1.47;70.97;97346.34;4948101;28;20027;-67
2021/03/02 06:13:09;;;;;;;27.45;15.35;;;3.30;73.90;;;1.41;71.19;97354.56;4948456;28;20039;-68
2021/03/02 06:15:34;;;;;;;25.85;15.20;;;3.30;74.00;;;1.39;70.81;97346.88;4928799;29;20126;-71
2021/03/02 06:18:27;;;;;;;27.48;15.15;;;3.30;73.90;;;1.39;73.29;97348.63;4937066;28;20077;-67
2021/03/02 06:20:53;;;;;;;28.35;16.20;;;3.30;73.80;;;1.37;70.57;97350.50;4941808;28;20040;-66
2021/03/02 06:23:27;;;;;;;28.08;14.80;;;3.20;73.70;;;1.32;72.67;97347.38;4949852;29;20083;-68
2021/03/02 06:25:54;;;;;;;31.25;15.75;;;3.20;73.70;;;1.32;71.63;97349.94;4951095;28;20039;-65
2021/03/02 06:28:39;;;;;;;27.30;15.48;;;3.30;73.80;;;1.32;73.55;97355.13;4953889;28;20038;-68
2021/03/02 06:31:05;;;;;;;31.48;16.92;;;3.30;73.60;;;1.33;71.30;97349.03;4932072;28;20113;-65
2021/03/02 06:33:31;;;;;;;27.80;16.55;;;3.40;74.20;;;1.36;71.60;97359.19;4944924;28;20559;-64
2021/03/02 06:35:57;;;;;;;28.52;17.00;;;3.40;74.80;;;1.39;71.80;97356.41;4918706;28;20043;-66
2021/03/02 06:38:29;;;;;;;33.80;18.00;;;3.50;75.20;;;1.43;73.78;97365.66;4958204;28;20031;-66
2021/03/02 06:40:55;;;;;;;32.00;16.65;;;3.50;75.50;;;1.45;71.77;97364.59;4952035;28;20034;-65
2021/03/02 06:43:32;;;;;;;33.35;18.50;;;3.60;75.80;;;1.51;75.27;97369.38;4954761;28;20059;-67
2021/03/02 06:46:06;;;;;;;31.38;16.88;;;3.60;75.90;;;1.57;74.26;97377.69;4945831;28;20896;-68
2021/03/02 06:48:32;;;;;;;31.17;16.48;;;3.70;75.50;;;1.62;72.25;97373.88;4941070;28;20031;-68
2021/03/02 06:50:59;;;;;;;26.48;15.95;;;3.80;75.10;;;1.68;72.22;97383.81;4952357;28;20034;-64
2021/03/02 06:53:24;;;;;;;27.65;16.15;;;3.90;75.00;;;1.77;72.38;97383.19;4937368;29;20046;-65
2021/03/02 06:55:50;;;;;;;30.58;17.13;;;4.00;75.30;;;1.88;72.60;97377.31;4936473;28;20110;-68
2021/03/02 06:58:23;;;;;;;30.02;16.15;;;4.20;74.80;;;2.01;74.92;97382.47;4933706;29;20039;-64
2021/03/02 07:00:56;;;;;;;27.00;16.05;;;4.50;74.00;;;2.18;74.58;97389.94;4964404;28;20032;-67
2021/03/02 07:03:26;;;;;;;31.05;16.83;;;4.80;73.00;;;2.41;72.84;97391.78;4955917;28;20050;-64
2021/03/02 07:05:53;;;;;;;29.90;16.42;;;5.20;72.30;;;2.66;73.05;97390.88;4951176;28;20038;-65
2021/03/02 07:08:19;;;;;;;26.98;15.50;;;5.60;70.90;;;2.93;72.30;97397.66;4918755;28;20031;-67
2021/03/02 07:10:49;;;;;;;27.27;15.77;;;6.00;69.30;;;3.17;72.14;97389.84;4934687;29;20067;-64
2021/03/02 07:13:16;;;;;;;26.35;14.05;;;6.40;67.50;;;3.46;72.57;97395.56;4931955;29;20038;-63
2021/03/02 07:15:42;;;;;;;25.58;15.60;;;7.00;65.60;;;3.73;71.57;97393.50;4954454;28;20068;-63
2021/03/02 07:18:09;;;;;;;26.27;15.65;;;7.20;64.30;;;4.00;71.42;97385.38;4964859;28;20054;-65
2021/03/02 07:20:35;;;;;;;23.30;14.48;;;7.50;63.20;;;4.21;70.80;97390.72;4957864;28;20426;-67
2021/03/02 07:23:01;;;;;;;26.25;14.68;;;7.70;61.90;;;4.42;71.06;97393.47;4953617;28;20074;-65
2021/03/02 07:25:29;;;;;;;26.33;15.80;;;8.30;60.20;;;4.69;70.98;97395.69;4947025;28;20399;-69
2021/03/02 07:27:57;;;;;;;26.85;14.45;;;8.90;58.20;;;4.93;70.49;97398.94;4931964;28;20039;-65
2021/03/02 07:30:23;;;;;;;23.95;14.45;;;9.60;55.10;;;5.23;70.35;97403.53;4931396;29;20130;-69
2021/03/02 07:32:49;;;;;;;23.25;14.18;;;10.20;53.10;;;5.63;69.61;97400.25;4931108;29;20071;-69
2021/03/02 07:35:22;;;;;;;24.40;15.00;;;10.80;51.70;;;6.02;67.44;97394.38;4934470;29;20043;-69
2021/03/02 07:37:47;;;;;;;26.95;14.90;;;11.00;50.20;;;6.40;68.52;97401.59;4951448;28;20086;-69
2021/03/02 07:40:15;;;;;;;23.63;13.80;;;11.20;49.60;;;6.79;66.96;97400.88;4954958;28;20439;-67
2021/03/02 07:42:41;;;;;;;25.45;14.02;;;11.50;49.10;;;7.07;66.57;97406.19;4961599;28;20039;-66
2021/03/02 07:45:15;;;;;;;23.23;14.10;;;11.60;48.50;;;7.45;63.57;97403.75;4934770;28;20481;-67
2021/03/02 07:47:48;;;;;;;25.73;14.32;;;12.10;47.30;;;7.87;63.32;97399.03;4957057;28;20038;-66
2021/03/02 07:50:26;;;;;;;23.63;13.68;;;12.90;45.20;;;8.38;60.76;97401.31;4935440;29;20561;-67
2021/03/02 07:53:18;;;;;;;22.77;13.70;;;14.20;41.90;;;8.89;59.21;97400.81;4933752;28;20047;-67
2021/03/02 07:55:44;;;;;;;20.95;13.38;;;15.30;39.40;;;9.38;64.46;97403.13;4944186;28;20035;-66
2021/03/02 07:58:20;;;;;;;23.92;13.93;;;16.20;37.30;;;9.95;58.93;97399.16;4949354;28;20035;-69
2021/03/02 08:00:50;;;;;;;33.75;13.52;;;17.10;35.70;;;10.48;59.48;97402.69;4927170;29;20533;-67
2021/03/02 08:03:25;;;;;;;25.38;13.70;;;17.80;34.40;;;10.89;55.72;97401.91;4957705;28;20089;-65
2021/03/02 08:05:56;;;;;;;71.72;17.10;;;17.80;33.80;;;11.32;56.48;97405.31;4964218;28;20506;-67
2021/03/02 08:08:24;;;;;;;45.75;14.25;;;18.60;32.70;;;11.69;56.60;97394.31;4942920;29;20039;-66
2021/03/02 08:10:51;;;;;;;27.50;13.68;;;19.00;31.70;;;12.03;57.21;97386.28;4959153;28;20407;-66
2021/03/02 08:13:40;;;;;;;38.30;13.48;;;19.40;30.90;;;12.41;50.26;97381.25;4950850;28;20042;-68
2021/03/02 08:16:09;;;;;;;31.63;12.82;;;19.70;30.30;;;12.69;54.83;97384.31;4944318;28;20400;-64
2021/03/02 08:18:36;;;;;;;25.15;12.02;;;20.30;29.40;;;13.00;53.98;97390.47;4930360;29;20534;-65
2021/03/02 08:21:15;;;;;;;19.88;12.23;;;20.90;28.60;;;13.29;49.26;97389.84;4917577;28;20140;-69
2021/03/02 08:23:55;;;;;;;16.45;11.00;;;20.70;28.60;;;13.55;47.44;97388.66;4922987;29;20054;-67
2021/03/02 08:26:34;;;;;;;16.40;10.75;;;21.30;27.60;;;13.75;46.73;97392.50;4930195;29;20567;-66
2021/03/02 08:29:16;;;;;;;16.67;11.15;;;21.50;27.20;;;13.91;47.31;97400.31;4944676;28;20043;-66
2021/03/02 08:31:46;;;;;;;21.73;14.23;;;21.90;26.40;;;14.13;47.34;97401.28;4933969;28;20047;-68
2021/03/02 08:34:13;;;;;;;21.27;16.20;;;22.10;26.30;;;14.34;49.42;97390.00;4946660;29;20039;-67
2021/03/02 08:36:39;;;;;;;17.67;12.52;;;22.20;25.90;;;14.42;49.82;97400.50;4935403;28;20039;-68
2021/03/02 08:39:10;;;;;;;17.13;11.35;;;22.00;26.20;;;14.62;45.51;97399.00;4928914;28;20042;-67
2021/03/02 08:41:37;;;;;;;;;;;22.30;25.90;;;14.84;43.00;97391.13;4954798;28;20035;-64
2021/03/02 08:44:03;;;;;;;19.90;12.10;;;22.50;25.70;;;15.19;48.10;97400.97;4956474;28;20013;-67
2021/03/02 08:46:32;;;;;;;18.55;12.43;;;22.90;25.30;;;15.44;45.93;97403.28;4936891;28;20507;-65
2021/03/02 08:48:57;;;;;;;15.60;11.13;;;23.00;25.00;;;15.71;46.57;97402.56;4937360;28;20436;-66
2021/03/02 08:51:25;;;;;;;18.08;10.93;;;23.00;25.20;;;15.79;45.69;97399.78;4934801;28;20117;-65
2021/03/02 08:53:52;;;;;;;19.23;11.93;;;22.90;24.60;;;15.81;45.53;97405.72;4957997;28;20040;-65
2021/03/02 08:56:24;;;;;;;20.13;14.27;;;22.60;24.90;;;16.05;41.71;97406.34;4932770;29;20063;-67
2021/03/02 08:58:55;;;;;;;21.85;12.38;;;23.00;24.80;;;16.23;41.61;97406.69;4945188;28;20043;-68
2021/03/02 09:01:24;;;;;;;16.95;11.35;;;22.80;24.90;;;16.39;42.61;97398.47;4935701;29;20040;-65
2021/03/02 09:03:51;;;;;;;16.52;11.25;;;23.00;24.90;;;16.62;43.75;97405.34;4971587;28;20036;-68
2021/03/02 09:06:26;;;;;;;17.48;11.25;;;23.00;24.90;;;16.79;38.91;97409.38;4948705;28;20379;-65
2021/03/02 09:09:22;;;;;;;14.68;11.40;;;23.00;25.10;;;17.15;39.12;97407.28;4945320;28;20118;-68
2021/03/02 09:11:56;;;;;;;15.68;10.60;;;23.20;24.30;;;17.44;40.65;97403.53;4926897;28;20067;-65
2021/03/02 09:14:22;;;;;;;13.75;10.38;;;23.40;24.60;;;17.64;41.00;97406.22;4937705;29;20172;-65
2021/03/02 09:16:52;;;;;;;14.45;9.65;;;23.30;24.20;;;17.81;38.19;97406.69;4919792;28;20062;-65
2021/03/02 09:19:28;;;;;;;14.57;9.50;;;23.60;24.60;;;18.10;37.03;97397.50;4937047;29;20035;-65
2021/03/02 09:21:54;;;;;;;18.05;10.38;;;23.70;24.10;;;18.13;39.03;97409.59;4921280;28;20035;-69
2021/03/02 09:24:25;;;;;;;17.60;10.68;;;23.70;24.30;;;18.21;36.70;97404.88;4952171;28;20550;-67
2021/03/02 09:26:58;;;;;;;16.13;10.40;;;23.80;24.10;;;18.25;36.47;97403.44;4959319;28;20443;-66
2021/03/02 09:29:28;;;;;;;14.50;11.20;;;23.80;24.40;;;18.43;37.60;97405.50;4932954;29;20031;-66
2021/03/02 09:31:56;;;;;;;11.43;9.13;;;24.00;24.10;;;18.67;36.75;97401.38;4932990;29;20094;-69
2021/03/02 09:34:32;;;;;;;15.07;10.70;;;24.10;23.90;;;18.72;34.91;97406.09;4936574;29;20035;-67
2021/03/02 09:37:16;;;;;;;15.15;9.93;;;23.70;24.30;;;18.85;34.40;97404.22;4943108;28;20122;-66
2021/03/02 09:39:53;;;;;;;14.80;10.18;;;24.00;23.90;;;19.05;36.04;97408.69;4946324;28;20040;-64
2021/03/02 09:42:24;;;;;;;15.73;9.57;;;24.10;23.90;;;19.08;33.81;97411.75;4970238;28;20046;-69
2021/03/02 09:44:52;;;;;;;14.07;9.55;;;23.90;23.30;;;19.10;35.91;97400.88;4949258;28;20113;-69
2021/03/02 09:47:26;;;;;;;14.80;9.82;;;24.20;23.50;;;19.31;33.49;97405.91;4934064;28;20043;-65
2021/03/02 09:50:14;;;;;;;14.10;10.52;;;24.90;23.00;;;19.41;32.91;97411.59;4929798;29;20050;-65
2021/03/02 09:52:50;;;;;;;16.77;10.75;;;25.00;22.70;;;19.50;33.46;97405.00;4936808;29;20040;-65
2021/03/02 09:55:30;;;;;;;12.77;10.35;;;25.60;22.60;;;19.68;33.20;97406.97;4932708;29;20036;-68
2021/03/02 09:58:13;;;;;;;15.50;10.40;;;25.70;22.00;;;19.90;34.15;97410.09;4934922;28;20039;-64
2021/03/02 10:00:46;;;;;;;15.25;10.70;;;26.30;21.40;;;20.27;32.85;97404.91;4961162;28;20055;-67
2021/03/02 10:03:17;;;;;;;18.48;10.95;;;27.20;20.80;;;20.80;32.28;97405.25;4936300;29;20429;-67
2021/03/02 10:06:00;;;;;;;16.13;10.77;;;27.80;20.00;;;21.52;31.73;97403.63;4951904;28;20074;-68
2021/03/02 10:08:38;;;;;;;17.23;10.40;;;28.50;19.60;;;22.11;31.52;97411.88;4932318;29;20447;-66
2021/03/02 10:11:09;;;;;;;15.02;10.13;;;29.50;18.90;;;22.72;31.04;97414.16;4948353;29;20067;-65
2021/03/02 10:13:37;;;;;;;12.20;9.13;;;30.70;17.80;;;23.25;33.04;97412.34;4946283;29;20289;-65
2021/03/02 10:16:24;;;;;;;12.25;9.80;;;31.60;16.90;;;23.62;28.43;97419.03;4967019;28;20039;-68
2021/03/02 10:18:56;;;;;;;12.68;9.90;;;32.50;15.80;;;24.03;29.25;97415.25;4956151;28;20477;-68
2021/03/02 10:21:24;;;;;;;14.68;10.23;;;33.30;15.30;;;24.43;31.70;97419.66;4935690;29;20040;-68
2021/03/02 10:23:53;;;;;;;15.20;10.15;;;34.00;15.10;;;24.79;29.64;97418.34;4969992;28;20502;-70